sensor_id;sensor_type;location;lat;lon;timestamp;pressure;altitude;pressure_sealevel;temperature;humidity
19286;BME280;9776;50.798;6.430;2023-03-01T00:00:00;101516.69;;;1.22;52.68
19286;BME280;9776;50.798;6.430;2023-03-01T00:02:28;101516.81;;;1.19;52.72
19286;BME280;9776;50.798;6.430;2023-03-01T00:04:54;101506.59;;;1.14;52.72
19286;BME280;9776;50.798;6.430;2023-03-01T00:07:21;101496.47;;;1.07;52.96
19286;BME280;9776;50.798;6.430;2023-03-01T00:09:48;101501.81;;;1.04;52.88
19286;BME280;9776;50.798;6.430;2023-03-01T00:12:14;101497.66;;;1.00;53.10
19286;BME280;9776;50.798;6.430;2023-03-01T00:14:41;101507.84;;;1.04;53.19
19286;BME280;9776;50.798;6.430;2023-03-01T00:17:08;101502.66;;;1.04;53.19
19286;BME280;9776;50.798;6.430;2023-03-01T00:19:36;101507.16;;;1.01;53.14
19286;BME280;9776;50.798;6.430;2023-03-01T00:22:03;101508.81;;;1.02;53.15
19286;BME280;9776;50.798;6.430;2023-03-01T00:24:29;101508.03;;;1.00;53.12
19286;BME280;9776;50.798;6.430;2023-03-01T00:26:56;101501.25;;;0.96;53.28
19286;BME280;9776;50.798;6.430;2023-03-01T00:29:23;101511.19;;;0.86;53.39
19286;BME280;9776;50.798;6.430;2023-03-01T00:31:50;101514.88;;;0.81;53.44
19286;BME280;9776;50.798;6.430;2023-03-01T00:34:16;101516.84;;;0.74;53.63
19286;BME280;9776;50.798;6.430;2023-03-01T00:36:44;101512.53;;;0.73;53.68
19286;BME280;9776;50.798;6.430;2023-03-01T00:39:13;101514.28;;;0.73;53.62
19286;BME280;9776;50.798;6.430;2023-03-01T00:41:40;101514.38;;;0.71;53.73
19286;BME280;9776;50.798;6.430;2023-03-01T00:44:07;101513.50;;;0.71;53.79
19286;BME280;9776;50.798;6.430;2023-03-01T00:46:34;101505.28;;;0.60;54.11
19286;BME280;9776;50.798;6.430;2023-03-01T00:49:01;101508.97;;;0.54;54.33
19286;BME280;9776;50.798;6.430;2023-03-01T00:51:30;101510.72;;;0.53;54.46
19286;BME280;9776;50.798;6.430;2023-03-01T00:54:00;101506.25;;;0.57;54.30
19286;BME280;9776;50.798;6.430;2023-03-01T00:56:28;101509.84;;;0.53;54.34
19286;BME280;9776;50.798;6.430;2023-03-01T00:58:55;101508.41;;;0.46;54.66
19286;BME280;9776;50.798;6.430;2023-03-01T01:01:24;101500.75;;;0.41;54.75
19286;BME280;9776;50.798;6.430;2023-03-01T01:03:54;101501.72;;;0.39;54.78
19286;BME280;9776;50.798;6.430;2023-03-01T01:06:22;101502.91;;;0.30;54.97
19286;BME280;9776;50.798;6.430;2023-03-01T01:08:50;101499.34;;;0.33;54.89
19286;BME280;9776;50.798;6.430;2023-03-01T01:11:19;101499.31;;;0.34;54.98
19286;BME280;9776;50.798;6.430;2023-03-01T01:13:47;101499.97;;;0.39;54.86
19286;BME280;9776;50.798;6.430;2023-03-01T01:16:14;101492.19;;;0.39;54.80
19286;BME280;9776;50.798;6.430;2023-03-01T01:18:42;101490.50;;;0.38;54.97
19286;BME280;9776;50.798;6.430;2023-03-01T01:21:10;101490.38;;;0.41;54.91
19286;BME280;9776;50.798;6.430;2023-03-01T01:23:38;101486.81;;;0.44;54.84
19286;BME280;9776;50.798;6.430;2023-03-01T01:26:06;101477.72;;;0.32;54.93
19286;BME280;9776;50.798;6.430;2023-03-01T01:28:34;101474.53;;;0.26;55.12
19286;BME280;9776;50.798;6.430;2023-03-01T01:31:00;101471.34;;;0.18;55.25
19286;BME280;9776;50.798;6.430;2023-03-01T01:33:27;101473.16;;;0.16;55.31
19286;BME280;9776;50.798;6.430;2023-03-01T01:35:54;101482.69;;;0.15;55.38
19286;BME280;9776;50.798;6.430;2023-03-01T01:38:21;101473.94;;;0.18;55.14
19286;BME280;9776;50.798;6.430;2023-03-01T01:40:48;101471.34;;;0.18;55.31
19286;BME280;9776;50.798;6.430;2023-03-01T01:43:19;101463.63;;;0.16;55.06
19286;BME280;9776;50.798;6.430;2023-03-01T01:45:48;101457.59;;;0.16;55.30
19286;BME280;9776;50.798;6.430;2023-03-01T01:48:18;101458.38;;;0.18;55.18
19286;BME280;9776;50.798;6.430;2023-03-01T01:50:50;101462.66;;;0.19;55.26
19286;BME280;9776;50.798;6.430;2023-03-01T01:53:21;101451.53;;;0.15;55.29
19286;BME280;9776;50.798;6.430;2023-03-01T01:55:51;101448.91;;;0.17;55.24
19286;BME280;9776;50.798;6.430;2023-03-01T01:58:20;101442.00;;;0.16;55.21
19286;BME280;9776;50.798;6.430;2023-03-01T02:00:49;101450.69;;;0.15;55.21
19286;BME280;9776;50.798;6.430;2023-03-01T02:03:20;101444.78;;;0.11;55.37
19286;BME280;9776;50.798;6.430;2023-03-01T02:05:51;101439.63;;;0.10;55.40
19286;BME280;9776;50.798;6.430;2023-03-01T02:08:20;101432.81;;;0.07;55.44
19286;BME280;9776;50.798;6.430;2023-03-01T02:10:49;101430.22;;;0.07;55.47
19286;BME280;9776;50.798;6.430;2023-03-01T02:13:17;101427.84;;;0.01;55.48
19286;BME280;9776;50.798;6.430;2023-03-01T02:15:44;101429.53;;;0.02;55.37
19286;BME280;9776;50.798;6.430;2023-03-01T02:18:16;101427.09;;;-0.03;55.53
19286;BME280;9776;50.798;6.430;2023-03-01T02:20:51;101420.56;;;-0.13;55.71
19286;BME280;9776;50.798;6.430;2023-03-01T02:23:22;101428.66;;;-0.22;55.81
19286;BME280;9776;50.798;6.430;2023-03-01T02:25:53;101415.97;;;-0.29;56.03
19286;BME280;9776;50.798;6.430;2023-03-01T02:28:33;101413.41;;;-0.31;55.86
19286;BME280;9776;50.798;6.430;2023-03-01T02:31:01;101416.13;;;-0.34;55.93
19286;BME280;9776;50.798;6.430;2023-03-01T02:33:54;101416.31;;;-0.38;55.87
19286;BME280;9776;50.798;6.430;2023-03-01T02:36:24;101421.59;;;-0.41;55.97
19286;BME280;9776;50.798;6.430;2023-03-01T02:38:53;101421.69;;;-0.44;55.99
19286;BME280;9776;50.798;6.430;2023-03-01T02:41:23;101423.72;;;-0.52;56.13
19286;BME280;9776;50.798;6.430;2023-03-01T02:43:53;101414.41;;;-0.58;56.17
19286;BME280;9776;50.798;6.430;2023-03-01T02:46:22;101420.69;;;-0.65;56.44
19286;BME280;9776;50.798;6.430;2023-03-01T02:48:51;101411.16;;;-0.65;56.36
19286;BME280;9776;50.798;6.430;2023-03-01T02:51:38;101408.41;;;-0.60;56.22
19286;BME280;9776;50.798;6.430;2023-03-01T02:54:17;101409.13;;;-0.55;56.31
19286;BME280;9776;50.798;6.430;2023-03-01T02:56:48;101413.44;;;-0.55;56.25
19286;BME280;9776;50.798;6.430;2023-03-01T02:59:18;101416.78;;;-0.52;56.30
19286;BME280;9776;50.798;6.430;2023-03-01T03:01:48;101418.53;;;-0.52;56.23
19286;BME280;9776;50.798;6.430;2023-03-01T03:04:17;101420.38;;;-0.56;56.34
19286;BME280;9776;50.798;6.430;2023-03-01T03:06:44;101414.41;;;-0.58;56.63
19286;BME280;9776;50.798;6.430;2023-03-01T03:09:12;101420.41;;;-0.58;56.69
19286;BME280;9776;50.798;6.430;2023-03-01T03:11:39;101416.06;;;-0.57;56.72
19286;BME280;9776;50.798;6.430;2023-03-01T03:14:06;101423.84;;;-0.57;56.77
19286;BME280;9776;50.798;6.430;2023-03-01T03:16:40;101413.47;;;-0.57;56.71
19286;BME280;9776;50.798;6.430;2023-03-01T03:19:06;101412.44;;;-0.51;56.53
19286;BME280;9776;50.798;6.430;2023-03-01T03:21:33;101410.69;;;-0.51;56.68
19286;BME280;9776;50.798;6.430;2023-03-01T03:24:00;101415.94;;;-0.52;56.58
19286;BME280;9776;50.798;6.430;2023-03-01T03:26:27;101407.31;;;-0.53;56.77
19286;BME280;9776;50.798;6.430;2023-03-01T03:28:53;101397.81;;;-0.54;56.80
19286;BME280;9776;50.798;6.430;2023-03-01T03:31:20;101402.91;;;-0.51;56.86
19286;BME280;9776;50.798;6.430;2023-03-01T03:33:48;101397.72;;;-0.51;56.79
19286;BME280;9776;50.798;6.430;2023-03-01T03:36:15;101400.69;;;-0.62;57.10
19286;BME280;9776;50.798;6.430;2023-03-01T03:38:43;101393.16;;;-0.69;57.26
19286;BME280;9776;50.798;6.430;2023-03-01T03:41:10;101388.06;;;-0.72;57.25
19286;BME280;9776;50.798;6.430;2023-03-01T03:43:38;101390.72;;;-0.74;57.24
19286;BME280;9776;50.798;6.430;2023-03-01T03:46:05;101384.81;;;-0.77;57.21
19286;BME280;9776;50.798;6.430;2023-03-01T03:48:33;101385.63;;;-0.75;57.27
19286;BME280;9776;50.798;6.430;2023-03-01T03:51:02;101377.78;;;-0.74;57.23
19286;BME280;9776;50.798;6.430;2023-03-01T03:53:30;101373.53;;;-0.76;57.24
19286;BME280;9776;50.798;6.430;2023-03-01T03:55:57;101386.59;;;-0.79;57.36
19286;BME280;9776;50.798;6.430;2023-03-01T03:58:25;101381.47;;;-0.81;57.21
19286;BME280;9776;50.798;6.430;2023-03-01T04:00:53;101387.69;;;-0.86;57.31
19286;BME280;9776;50.798;6.430;2023-03-01T04:03:22;101387.88;;;-0.91;57.33
19286;BME280;9776;50.798;6.430;2023-03-01T04:05:49;101379.34;;;-0.94;57.29
19286;BME280;9776;50.798;6.430;2023-03-01T04:08:18;101373.38;;;-0.96;57.31
19286;BME280;9776;50.798;6.430;2023-03-01T04:10:47;101381.19;;;-0.98;57.27
19286;BME280;9776;50.798;6.430;2023-03-01T04:13:16;101376.09;;;-1.01;57.28
19286;BME280;9776;50.798;6.430;2023-03-01T04:15:45;101368.59;;;-1.08;57.46
19286;BME280;9776;50.798;6.430;2023-03-01T04:18:12;101368.56;;;-1.07;57.45
19286;BME280;9776;50.798;6.430;2023-03-01T04:20:39;101369.56;;;-1.13;57.43
19286;BME280;9776;50.798;6.430;2023-03-01T04:23:08;101361.94;;;-1.16;57.55
19286;BME280;9776;50.798;6.430;2023-03-01T04:25:41;101357.75;;;-1.20;57.51
19286;BME280;9776;50.798;6.430;2023-03-01T04:28:09;101355.16;;;-1.20;57.67
19286;BME280;9776;50.798;6.430;2023-03-01T04:30:36;101348.25;;;-1.21;57.57
19286;BME280;9776;50.798;6.430;2023-03-01T04:33:04;101353.34;;;-1.18;57.41
19286;BME280;9776;50.798;6.430;2023-03-01T04:35:30;101350.84;;;-1.21;57.44
19286;BME280;9776;50.798;6.430;2023-03-01T04:37:57;101351.78;;;-1.22;57.47
19286;BME280;9776;50.798;6.430;2023-03-01T04:40:24;101356.84;;;-1.19;57.46
19286;BME280;9776;50.798;6.430;2023-03-01T04:42:53;101358.72;;;-1.24;57.40
19286;BME280;9776;50.798;6.430;2023-03-01T04:45:19;101355.34;;;-1.26;57.44
19286;BME280;9776;50.798;6.430;2023-03-01T04:47:46;101345.25;;;-1.33;57.51
19286;BME280;9776;50.798;6.430;2023-03-01T04:50:15;101359.00;;;-1.33;57.60
19286;BME280;9776;50.798;6.430;2023-03-01T04:52:42;101358.31;;;-1.38;57.49
19286;BME280;9776;50.798;6.430;2023-03-01T04:55:10;101358.47;;;-1.42;57.51
19286;BME280;9776;50.798;6.430;2023-03-01T04:57:37;101364.59;;;-1.45;57.60
19286;BME280;9776;50.798;6.430;2023-03-01T05:00:07;101365.41;;;-1.43;57.58
19286;BME280;9776;50.798;6.430;2023-03-01T05:02:46;101358.66;;;-1.48;57.58
19286;BME280;9776;50.798;6.430;2023-03-01T05:05:14;101358.72;;;-1.50;57.74
19286;BME280;9776;50.798;6.430;2023-03-01T05:07:41;101362.16;;;-1.49;57.66
19286;BME280;9776;50.798;6.430;2023-03-01T05:10:08;101344.97;;;-1.52;57.74
19286;BME280;9776;50.798;6.430;2023-03-01T05:12:35;101344.19;;;-1.54;57.78
19286;BME280;9776;50.798;6.430;2023-03-01T05:15:03;101346.00;;;-1.57;58.10
19286;BME280;9776;50.798;6.430;2023-03-01T05:17:33;101341.78;;;-1.60;58.00
19286;BME280;9776;50.798;6.430;2023-03-01T05:20:02;101345.25;;;-1.61;58.08
19286;BME280;9776;50.798;6.430;2023-03-01T05:22:32;101338.41;;;-1.62;58.06
19286;BME280;9776;50.798;6.430;2023-03-01T05:24:58;101341.88;;;-1.63;58.11
19286;BME280;9776;50.798;6.430;2023-03-01T05:27:25;101346.34;;;-1.68;58.23
19286;BME280;9776;50.798;6.430;2023-03-01T05:29:51;101353.31;;;-1.70;58.28
19286;BME280;9776;50.798;6.430;2023-03-01T05:32:18;101346.47;;;-1.73;58.20
19286;BME280;9776;50.798;6.430;2023-03-01T05:34:46;101347.50;;;-1.77;58.30
19286;BME280;9776;50.798;6.430;2023-03-01T05:37:13;101340.00;;;-1.86;58.52
19286;BME280;9776;50.798;6.430;2023-03-01T05:39:40;101341.81;;;-1.89;58.52
19286;BME280;9776;50.798;6.430;2023-03-01T05:42:10;101343.63;;;-1.91;58.66
19286;BME280;9776;50.798;6.430;2023-03-01T05:44:37;101348.88;;;-1.94;58.74
19286;BME280;9776;50.798;6.430;2023-03-01T05:47:04;101348.03;;;-1.95;58.74
19286;BME280;9776;50.798;6.430;2023-03-01T05:49:31;101343.72;;;-1.94;58.71
19286;BME280;9776;50.798;6.430;2023-03-01T05:51:59;101345.38;;;-1.93;58.79
19286;BME280;9776;50.798;6.430;2023-03-01T05:54:26;101344.47;;;-1.91;58.74
19286;BME280;9776;50.798;6.430;2023-03-01T05:56:52;101352.19;;;-1.89;58.79
19286;BME280;9776;50.798;6.430;2023-03-01T05:59:19;101354.72;;;-1.88;58.68
19286;BME280;9776;50.798;6.430;2023-03-01T06:01:46;101347.28;;;-1.98;58.92
19286;BME280;9776;50.798;6.430;2023-03-01T06:04:12;101362.50;;;-2.17;59.36
19286;BME280;9776;50.798;6.430;2023-03-01T06:06:39;101349.94;;;-2.31;59.55
19286;BME280;9776;50.798;6.430;2023-03-01T06:09:07;101358.59;;;-2.32;59.82
19286;BME280;9776;50.798;6.430;2023-03-01T06:11:35;101354.94;;;-2.24;59.62
19286;BME280;9776;50.798;6.430;2023-03-01T06:14:03;101355.63;;;-2.18;59.49
19286;BME280;9776;50.798;6.430;2023-03-01T06:16:31;101357.25;;;-2.14;59.18
19286;BME280;9776;50.798;6.430;2023-03-01T06:18:58;101359.69;;;-2.09;59.29
19286;BME280;9776;50.798;6.430;2023-03-01T06:21:24;101354.41;;;-2.06;59.16
19286;BME280;9776;50.798;6.430;2023-03-01T06:23:51;101349.91;;;-2.00;59.10
19286;BME280;9776;50.798;6.430;2023-03-01T06:26:19;101350.66;;;-1.96;59.00
19286;BME280;9776;50.798;6.430;2023-03-01T06:28:46;101346.41;;;-1.99;59.05
19286;BME280;9776;50.798;6.430;2023-03-01T06:31:12;101340.50;;;-2.02;59.11
19286;BME280;9776;50.798;6.430;2023-03-01T06:33:39;101341.53;;;-2.08;59.20
19286;BME280;9776;50.798;6.430;2023-03-01T06:36:07;101334.56;;;-2.06;59.28
19286;BME280;9776;50.798;6.430;2023-03-01T06:38:34;101333.66;;;-2.05;59.15
19286;BME280;9776;50.798;6.430;2023-03-01T06:41:01;101330.16;;;-2.02;59.20
19286;BME280;9776;50.798;6.430;2023-03-01T06:43:29;101335.25;;;-1.99;59.16
19286;BME280;9776;50.798;6.430;2023-03-01T06:45:56;101337.72;;;-1.96;58.97
19286;BME280;9776;50.798;6.430;2023-03-01T06:48:22;101335.94;;;-1.94;59.10
19286;BME280;9776;50.798;6.430;2023-03-01T06:50:49;101340.19;;;-1.92;59.02
19286;BME280;9776;50.798;6.430;2023-03-01T06:53:15;101340.03;;;-1.87;59.07
19286;BME280;9776;50.798;6.430;2023-03-01T06:55:42;101334.66;;;-1.81;59.01
19286;BME280;9776;50.798;6.430;2023-03-01T06:58:09;101334.50;;;-1.75;58.95
19286;BME280;9776;50.798;6.430;2023-03-01T07:00:37;101342.22;;;-1.74;58.86
19286;BME280;9776;50.798;6.430;2023-03-01T07:03:06;101339.72;;;-1.77;58.91
19286;BME280;9776;50.798;6.430;2023-03-01T07:05:33;101343.03;;;-1.73;58.89
19286;BME280;9776;50.798;6.430;2023-03-01T07:08:00;101345.50;;;-1.68;59.00
19286;BME280;9776;50.798;6.430;2023-03-01T07:10:27;101343.94;;;-1.74;59.02
19286;BME280;9776;50.798;6.430;2023-03-01T07:12:55;101342.06;;;-1.69;59.17
19286;BME280;9776;50.798;6.430;2023-03-01T07:15:22;101339.44;;;-1.67;59.27
19286;BME280;9776;50.798;6.430;2023-03-01T07:17:50;101342.75;;;-1.64;59.24
19286;BME280;9776;50.798;6.430;2023-03-01T07:20:17;101347.66;;;-1.55;59.12
19286;BME280;9776;50.798;6.430;2023-03-01T07:22:44;101343.13;;;-1.48;59.22
19286;BME280;9776;50.798;6.430;2023-03-01T07:25:11;101342.00;;;-1.40;59.09
19286;BME280;9776;50.798;6.430;2023-03-01T07:27:37;101334.81;;;-1.32;58.91
19286;BME280;9776;50.798;6.430;2023-03-01T07:30:05;101330.22;;;-1.24;58.83
19286;BME280;9776;50.798;6.430;2023-03-01T07:32:32;101332.72;;;-1.21;58.77
19286;BME280;9776;50.798;6.430;2023-03-01T07:35:00;101331.16;;;-1.25;59.21
19286;BME280;9776;50.798;6.430;2023-03-01T07:37:27;101323.91;;;-1.15;59.06
19286;BME280;9776;50.798;6.430;2023-03-01T07:39:54;101331.34;;;-1.04;59.05
19286;BME280;9776;50.798;6.430;2023-03-01T07:42:20;101331.03;;;-0.95;59.07
19286;BME280;9776;50.798;6.430;2023-03-01T07:44:47;101331.50;;;-0.84;58.99
19286;BME280;9776;50.798;6.430;2023-03-01T07:47:13;101332.34;;;-0.84;59.05
19286;BME280;9776;50.798;6.430;2023-03-01T07:49:40;101327.41;;;-0.91;59.49
19286;BME280;9776;50.798;6.430;2023-03-01T07:52:09;101332.50;;;-0.88;59.57
19286;BME280;9776;50.798;6.430;2023-03-01T07:54:36;101329.91;;;-0.88;59.72
19286;BME280;9776;50.798;6.430;2023-03-01T07:57:03;101328.16;;;-0.88;59.84
19286;BME280;9776;50.798;6.430;2023-03-01T07:59:29;101324.81;;;-0.91;60.05
19286;BME280;9776;50.798;6.430;2023-03-01T08:01:57;101321.75;;;-0.78;60.11
19286;BME280;9776;50.798;6.430;2023-03-01T08:04:23;101321.09;;;-0.60;59.77
19286;BME280;9776;50.798;6.430;2023-03-01T08:06:51;101326.06;;;-0.53;59.86
19286;BME280;9776;50.798;6.430;2023-03-01T08:09:20;101320.03;;;-0.54;60.06
19286;BME280;9776;50.798;6.430;2023-03-01T08:11:47;101315.16;;;-0.38;59.81
19286;BME280;9776;50.798;6.430;2023-03-01T08:14:13;101317.88;;;-0.20;59.51
19286;BME280;9776;50.798;6.430;2023-03-01T08:16:40;101310.28;;;-0.01;59.29
19286;BME280;9776;50.798;6.430;2023-03-01T08:19:08;101318.94;;;-0.02;59.19
19286;BME280;9776;50.798;6.430;2023-03-01T08:21:34;101321.16;;;0.09;59.30
19286;BME280;9776;50.798;6.430;2023-03-01T08:24:01;101318.06;;;0.21;59.09
19286;BME280;9776;50.798;6.430;2023-03-01T08:26:30;101315.84;;;0.33;59.01
19286;BME280;9776;50.798;6.430;2023-03-01T08:28:57;101314.38;;;0.48;58.86
19286;BME280;9776;50.798;6.430;2023-03-01T08:31:25;101315.53;;;0.63;58.65
19286;BME280;9776;50.798;6.430;2023-03-01T08:33:55;101320.34;;;0.72;58.57
19286;BME280;9776;50.798;6.430;2023-03-01T08:36:22;101319.88;;;0.82;58.42
19286;BME280;9776;50.798;6.430;2023-03-01T08:38:49;101323.81;;;0.92;58.27
19286;BME280;9776;50.798;6.430;2023-03-01T08:41:16;101324.31;;;1.00;58.15
19286;BME280;9776;50.798;6.430;2023-03-01T08:43:44;101328.28;;;1.09;58.22
19286;BME280;9776;50.798;6.430;2023-03-01T08:48:50;101318.88;;;1.27;57.94
19286;BME280;9776;50.798;6.430;2023-03-01T08:51:18;101312.72;;;1.28;57.99
19286;BME280;9776;50.798;6.430;2023-03-01T08:53:46;101312.47;;;1.34;57.79
19286;BME280;9776;50.798;6.430;2023-03-01T08:56:13;101310.44;;;1.40;57.77
19286;BME280;9776;50.798;6.430;2023-03-01T08:58:40;101313.69;;;1.45;57.60
19286;BME280;9776;50.798;6.430;2023-03-01T09:01:12;101302.78;;;1.56;57.49
19286;BME280;9776;50.798;6.430;2023-03-01T09:03:40;101306.81;;;1.63;57.36
19286;BME280;9776;50.798;6.430;2023-03-01T09:06:07;101297.63;;;1.75;57.22
19286;BME280;9776;50.798;6.430;2023-03-01T09:08:34;101299.59;;;1.88;57.02
19286;BME280;9776;50.798;6.430;2023-03-01T09:11:02;101305.06;;;2.01;56.79
19286;BME280;9776;50.798;6.430;2023-03-01T09:13:28;101300.97;;;2.14;56.39
19286;BME280;9776;50.798;6.430;2023-03-01T09:15:56;101304.03;;;2.41;56.01
19286;BME280;9776;50.798;6.430;2023-03-01T09:18:24;101304.00;;;2.76;55.28
19286;BME280;9776;50.798;6.430;2023-03-01T09:20:51;101313.94;;;3.37;54.33
19286;BME280;9776;50.798;6.430;2023-03-01T09:23:20;101308.09;;;4.58;51.96
19286;BME280;9776;50.798;6.430;2023-03-01T09:25:46;101296.59;;;5.77;49.27
19286;BME280;9776;50.798;6.430;2023-03-01T09:28:13;101301.22;;;6.68;47.32
19286;BME280;9776;50.798;6.430;2023-03-01T09:30:40;101298.34;;;7.10;46.15
19286;BME280;9776;50.798;6.430;2023-03-01T09:33:06;101295.00;;;7.59;45.28
19286;BME280;9776;50.798;6.430;2023-03-01T09:35:37;101285.34;;;8.79;42.93
19286;BME280;9776;50.798;6.430;2023-03-01T09:38:11;101285.94;;;9.84;41.21
19286;BME280;9776;50.798;6.430;2023-03-01T09:40:42;101280.53;;;11.24;38.92
19286;BME280;9776;50.798;6.430;2023-03-01T09:43:16;101281.06;;;12.28;37.21
19286;BME280;9776;50.798;6.430;2023-03-01T09:45:48;101278.56;;;12.17;37.12
19286;BME280;9776;50.798;6.430;2023-03-01T09:48:18;101273.28;;;11.77;37.63
19286;BME280;9776;50.798;6.430;2023-03-01T09:50:49;101267.03;;;11.48;37.70
19286;BME280;9776;50.798;6.430;2023-03-01T09:53:18;101270.25;;;11.51;37.74
19286;BME280;9776;50.798;6.430;2023-03-01T09:55:48;101257.34;;;11.98;36.94
19286;BME280;9776;50.798;6.430;2023-03-01T09:58:34;101257.75;;;11.93;36.55
19286;BME280;9776;50.798;6.430;2023-03-01T10:01:16;101258.59;;;10.71;37.81
19286;BME280;9776;50.798;6.430;2023-03-01T10:04:00;101264.34;;;10.12;39.22
19286;BME280;9776;50.798;6.430;2023-03-01T10:06:32;101261.91;;;11.56;37.48
19286;BME280;9776;50.798;6.430;2023-03-01T10:09:02;101259.59;;;13.17;34.74
19286;BME280;9776;50.798;6.430;2023-03-01T10:11:33;101243.06;;;14.59;33.02
19286;BME280;9776;50.798;6.430;2023-03-01T10:14:05;101243.28;;;15.69;31.04
19286;BME280;9776;50.798;6.430;2023-03-01T10:16:39;101254.28;;;16.24;30.26
19286;BME280;9776;50.798;6.430;2023-03-01T10:19:12;101253.22;;;16.01;30.67
19286;BME280;9776;50.798;6.430;2023-03-01T10:21:45;101252.59;;;16.23;30.15
19286;BME280;9776;50.798;6.430;2023-03-01T10:24:13;101247.97;;;16.49;29.79
19286;BME280;9776;50.798;6.430;2023-03-01T10:26:47;101242.50;;;16.75;29.37
19286;BME280;9776;50.798;6.430;2023-03-01T10:29:15;101231.19;;;16.81;29.53
19286;BME280;9776;50.798;6.430;2023-03-01T10:31:44;101229.03;;;16.84;28.57
19286;BME280;9776;50.798;6.430;2023-03-01T10:34:13;101234.44;;;15.34;29.30
19286;BME280;9776;50.798;6.430;2023-03-01T10:36:48;101231.16;;;15.74;29.25
19286;BME280;9776;50.798;6.430;2023-03-01T10:39:18;101232.50;;;16.53;28.64
19286;BME280;9776;50.798;6.430;2023-03-01T10:41:56;101233.34;;;16.53;27.82
19286;BME280;9776;50.798;6.430;2023-03-01T10:44:41;101222.00;;;16.99;27.15
19286;BME280;9776;50.798;6.430;2023-03-01T10:47:14;101207.25;;;17.36;26.95
19286;BME280;9776;50.798;6.430;2023-03-01T10:49:59;101211.44;;;17.77;26.27
19286;BME280;9776;50.798;6.430;2023-03-01T10:52:30;101206.06;;;18.76;25.56
19286;BME280;9776;50.798;6.430;2023-03-01T10:55:02;101199.81;;;19.50;24.88
19286;BME280;9776;50.798;6.430;2023-03-01T10:57:34;101200.81;;;19.64;24.53
19286;BME280;9776;50.798;6.430;2023-03-01T11:00:19;101202.66;;;19.49;24.89
19286;BME280;9776;50.798;6.430;2023-03-01T11:02:48;101195.69;;;18.81;25.06
19286;BME280;9776;50.798;6.430;2023-03-01T11:05:20;101194.41;;;18.09;25.79
19286;BME280;9776;50.798;6.430;2023-03-01T11:07:51;101198.19;;;18.14;26.13
19286;BME280;9776;50.798;6.430;2023-03-01T11:10:20;101191.63;;;19.00;25.27
19286;BME280;9776;50.798;6.430;2023-03-01T11:12:48;101184.88;;;19.77;24.28
19286;BME280;9776;50.798;6.430;2023-03-01T11:15:26;101190.78;;;20.44;23.85
19286;BME280;9776;50.798;6.430;2023-03-01T11:17:54;101183.75;;;21.20;22.97
19286;BME280;9776;50.798;6.430;2023-03-01T11:20:31;101173.69;;;21.76;22.50
19286;BME280;9776;50.798;6.430;2023-03-01T11:23:02;101162.88;;;21.63;22.12
19286;BME280;9776;50.798;6.430;2023-03-01T11:25:34;101154.56;;;22.18;21.76
19286;BME280;9776;50.798;6.430;2023-03-01T11:28:03;101155.38;;;21.99;21.97
19286;BME280;9776;50.798;6.430;2023-03-01T11:30:34;101146.88;;;22.02;21.96
19286;BME280;9776;50.798;6.430;2023-03-01T11:33:10;101146.50;;;22.38;21.38
19286;BME280;9776;50.798;6.430;2023-03-01T11:35:42;101140.28;;;22.96;20.96
19286;BME280;9776;50.798;6.430;2023-03-01T11:38:20;101131.47;;;23.40;20.62
19286;BME280;9776;50.798;6.430;2023-03-01T11:40:51;101144.34;;;23.76;20.31
19286;BME280;9776;50.798;6.430;2023-03-01T11:43:24;101130.44;;;24.17;19.78
19286;BME280;9776;50.798;6.430;2023-03-01T11:46:02;101120.47;;;24.67;19.22
19286;BME280;9776;50.798;6.430;2023-03-01T11:48:46;101106.78;;;24.87;19.19
19286;BME280;9776;50.798;6.430;2023-03-01T11:51:24;101107.22;;;25.38;18.76
19286;BME280;9776;50.798;6.430;2023-03-01T11:54:09;101096.28;;;25.92;18.16
19286;BME280;9776;50.798;6.430;2023-03-01T11:56:43;101096.63;;;26.26;17.57
19286;BME280;9776;50.798;6.430;2023-03-01T11:59:33;101090.50;;;26.54;17.54
19286;BME280;9776;50.798;6.430;2023-03-01T12:02:46;101091.44;;;27.05;17.23
19286;BME280;9776;50.798;6.430;2023-03-01T12:05:29;101081.78;;;27.49;16.92
19286;BME280;9776;50.798;6.430;2023-03-01T12:08:07;101085.50;;;27.60;16.49
19286;BME280;9776;50.798;6.430;2023-03-01T12:10:44;101091.00;;;27.65;16.33
19286;BME280;9776;50.798;6.430;2023-03-01T12:13:30;101087.31;;;27.71;16.24
19286;BME280;9776;50.798;6.430;2023-03-01T12:16:23;101083.75;;;27.54;16.25
19286;BME280;9776;50.798;6.430;2023-03-01T12:19:04;101068.25;;;27.66;16.41
19286;BME280;9776;50.798;6.430;2023-03-01T12:21:54;101071.66;;;27.90;16.24
19286;BME280;9776;50.798;6.430;2023-03-01T12:24:44;101078.19;;;28.05;16.18
19286;BME280;9776;50.798;6.430;2023-03-01T12:27:30;101074.41;;;28.23;15.73
19286;BME280;9776;50.798;6.430;2023-03-01T12:30:15;101077.69;;;28.42;15.55
19286;BME280;9776;50.798;6.430;2023-03-01T12:32:50;101074.31;;;28.01;15.49
19286;BME280;9776;50.798;6.430;2023-03-01T12:35:47;101062.50;;;26.83;16.19
19286;BME280;9776;50.798;6.430;2023-03-01T12:38:37;101056.03;;;26.49;16.37
19286;BME280;9776;50.798;6.430;2023-03-01T12:44:07;101053.16;;;26.67;16.30
19286;BME280;9776;50.798;6.430;2023-03-01T12:46:44;101045.50;;;26.87;15.91
19286;BME280;9776;50.798;6.430;2023-03-01T12:49:15;101049.50;;;26.96;15.85
19286;BME280;9776;50.798;6.430;2023-03-01T12:51:46;101051.16;;;26.97;15.85
19286;BME280;9776;50.798;6.430;2023-03-01T12:54:20;101046.13;;;26.78;15.92
19286;BME280;9776;50.798;6.430;2023-03-01T12:56:52;101041.50;;;26.78;16.02
19286;BME280;9776;50.798;6.430;2023-03-01T12:59:24;101029.06;;;26.42;16.07
19286;BME280;9776;50.798;6.430;2023-03-01T13:01:57;101032.94;;;26.58;15.86
19286;BME280;9776;50.798;6.430;2023-03-01T13:04:33;101022.44;;;26.85;15.52
19286;BME280;9776;50.798;6.430;2023-03-01T13:07:13;101035.06;;;27.19;15.47
19286;BME280;9776;50.798;6.430;2023-03-01T13:09:48;101027.25;;;27.23;15.19
19286;BME280;9776;50.798;6.430;2023-03-01T13:12:49;101025.97;;;26.85;15.47
19286;BME280;9776;50.798;6.430;2023-03-01T13:15:29;101020.91;;;26.77;15.36
19286;BME280;9776;50.798;6.430;2023-03-01T13:17:57;101020.44;;;26.92;15.29
19286;BME280;9776;50.798;6.430;2023-03-01T13:20:27;101017.94;;;26.90;15.54
19286;BME280;9776;50.798;6.430;2023-03-01T13:23:09;101011.78;;;26.43;15.56